createdAt,value
2023-01-17T00:00:09.786Z,96691.72
2023-01-17T00:02:38.569Z,96698.78
2023-01-17T00:05:24.821Z,96696.16
2023-01-17T00:08:10.790Z,96699.78
2023-01-17T00:10:43.046Z,96694.94
2023-01-17T00:13:10.585Z,96684.66
2023-01-17T00:15:39.956Z,96686.91
2023-01-17T00:18:07.511Z,96683.28
2023-01-17T00:20:53.514Z,96686.91
2023-01-17T00:23:42.541Z,96700.78
2023-01-17T00:26:18.731Z,96691.72
2023-01-17T00:28:47.601Z,96689.91
2023-01-17T00:31:16.621Z,96691.94
2023-01-17T00:33:44.456Z,96690.72
2023-01-17T00:36:12.285Z,96689.31
2023-01-17T00:38:40.488Z,96683.69
2023-01-17T00:41:13.482Z,96678.25
2023-01-17T00:43:59.937Z,96689.72
2023-01-17T00:46:46.158Z,96686.72
2023-01-17T00:49:32.353Z,96690.13
2023-01-17T00:52:19.288Z,96676.81
2023-01-17T00:55:05.078Z,96678.03
2023-01-17T00:57:50.925Z,96666.75
2023-01-17T01:00:38.213Z,96670.69
2023-01-17T01:03:30.884Z,96670.75
2023-01-17T01:06:17.268Z,96676.72
2023-01-17T01:09:03.159Z,96667.53
2023-01-17T01:11:48.977Z,96661.88
2023-01-17T01:14:35.282Z,96667.53
2023-01-17T01:17:21.600Z,96668.19
2023-01-17T01:20:10.296Z,96685.47
2023-01-17T01:22:56.242Z,96705.22
2023-01-17T01:25:42.653Z,96700.38
2023-01-17T01:28:31.040Z,96691.34
2023-01-17T01:31:20.960Z,96693.97
2023-01-17T01:33:50.053Z,96704.41
2023-01-17T01:36:17.556Z,96702.22
2023-01-17T01:38:46.033Z,96704.22
2023-01-17T01:41:13.706Z,96692.34
2023-01-17T01:43:49.657Z,96708.44
2023-01-17T01:46:32.824Z,96701.78
2023-01-17T01:49:15.005Z,96699.00
2023-01-17T01:51:47.447Z,96693.75
2023-01-17T01:54:30.647Z,96683.06
2023-01-17T01:57:02.972Z,96670.81
2023-01-17T01:59:32.334Z,96658.31
2023-01-17T02:01:59.967Z,96647.88
2023-01-17T02:04:28.774Z,96648.81
2023-01-17T02:07:04.089Z,96646.50
2023-01-17T02:09:31.940Z,96639.25
2023-01-17T02:11:59.952Z,96644.50
2023-01-17T02:14:27.516Z,96642.66
2023-01-17T02:17:25.799Z,96649.59
2023-01-17T02:19:55.999Z,96640.97
2023-01-17T02:23:07.797Z,96640.88
